sensor_id;sensor_type;location;lat;lon;timestamp;P1;durP1;ratioP1;P2;durP2;ratioP2
38117;SDS011;23928;47.562;7.508;2022-10-30T00:00:15;10.50;;;5.07;;
38117;SDS011;23928;47.562;7.508;2022-10-30T00:02:41;15.90;;;5.33;;
38117;SDS011;23928;47.562;7.508;2022-10-30T00:05:07;10.67;;;5.77;;
38117;SDS011;23928;47.562;7.508;2022-10-30T00:07:33;11.23;;;5.13;;
38117;SDS011;23928;47.562;7.508;2022-10-30T00:09:59;11.67;;;5.70;;
38117;SDS011;23928;47.562;7.508;2022-10-30T00:12:25;9.87;;;5.03;;
38117;SDS011;23928;47.562;7.508;2022-10-30T00:14:50;8.27;;;5.10;;
38117;SDS011;23928;47.562;7.508;2022-10-30T00:17:16;13.83;;;4.93;;
38117;SDS011;23928;47.562;7.508;2022-10-30T00:19:41;11.43;;;5.37;;
38117;SDS011;23928;47.562;7.508;2022-10-30T00:22:08;11.30;;;4.80;;
38117;SDS011;23928;47.562;7.508;2022-10-30T00:24:33;11.03;;;5.10;;
38117;SDS011;23928;47.562;7.508;2022-10-30T00:26:59;13.97;;;5.43;;
38117;SDS011;23928;47.562;7.508;2022-10-30T00:29:24;11.43;;;5.00;;
38117;SDS011;23928;47.562;7.508;2022-10-30T00:31:51;13.97;;;5.07;;
38117;SDS011;23928;47.562;7.508;2022-10-30T00:34:17;10.80;;;4.83;;
38117;SDS011;23928;47.562;7.508;2022-10-30T00:36:43;11.30;;;4.83;;
38117;SDS011;23928;47.562;7.508;2022-10-30T00:39:09;8.67;;;4.60;;
38117;SDS011;23928;47.562;7.508;2022-10-30T00:41:35;12.87;;;4.97;;
38117;SDS011;23928;47.562;7.508;2022-10-30T00:44:29;6.70;;;4.17;;
38117;SDS011;23928;47.562;7.508;2022-10-30T00:46:58;9.97;;;4.90;;
38117;SDS011;23928;47.562;7.508;2022-10-30T00:49:28;8.47;;;3.90;;
38117;SDS011;23928;47.562;7.508;2022-10-30T00:51:59;10.73;;;3.67;;
38117;SDS011;23928;47.562;7.508;2022-10-30T00:54:27;9.57;;;4.53;;
38117;SDS011;23928;47.562;7.508;2022-10-30T00:56:53;11.10;;;5.17;;
38117;SDS011;23928;47.562;7.508;2022-10-30T00:59:22;8.50;;;4.43;;
38117;SDS011;23928;47.562;7.508;2022-10-30T01:01:50;6.43;;;4.07;;
38117;SDS011;23928;47.562;7.508;2022-10-30T01:04:17;11.03;;;4.90;;
38117;SDS011;23928;47.562;7.508;2022-10-30T01:06:44;14.53;;;5.87;;
38117;SDS011;23928;47.562;7.508;2022-10-30T01:09:12;12.80;;;6.33;;
38117;SDS011;23928;47.562;7.508;2022-10-30T01:11:39;10.90;;;6.17;;
38117;SDS011;23928;47.562;7.508;2022-10-30T01:14:06;10.93;;;6.10;;
38117;SDS011;23928;47.562;7.508;2022-10-30T01:22:02;17.20;;;6.60;;
38117;SDS011;23928;47.562;7.508;2022-10-30T01:27:48;12.03;;;6.37;;
38117;SDS011;23928;47.562;7.508;2022-10-30T01:33:22;12.20;;;6.83;;
38117;SDS011;23928;47.562;7.508;2022-10-30T01:35:58;12.93;;;6.40;;
38117;SDS011;23928;47.562;7.508;2022-10-30T01:38:32;14.37;;;7.13;;
38117;SDS011;23928;47.562;7.508;2022-10-30T01:41:03;12.03;;;5.57;;
38117;SDS011;23928;47.562;7.508;2022-10-30T01:43:29;10.33;;;6.07;;
38117;SDS011;23928;47.562;7.508;2022-10-30T01:59:54;12.00;;;5.37;;
38117;SDS011;23928;47.562;7.508;2022-10-30T02:02:25;8.00;;;4.77;;
38117;SDS011;23928;47.562;7.508;2022-10-30T02:04:51;12.63;;;4.70;;
38117;SDS011;23928;47.562;7.508;2022-10-30T02:07:16;11.93;;;5.17;;
38117;SDS011;23928;47.562;7.508;2022-10-30T02:09:42;10.10;;;4.57;;
38117;SDS011;23928;47.562;7.508;2022-10-30T02:12:08;9.40;;;4.70;;
38117;SDS011;23928;47.562;7.508;2022-10-30T02:14:39;14.23;;;4.93;;
38117;SDS011;23928;47.562;7.508;2022-10-30T02:17:07;7.03;;;4.53;;
38117;SDS011;23928;47.562;7.508;2022-10-30T02:19:35;8.20;;;4.30;;
38117;SDS011;23928;47.562;7.508;2022-10-30T02:22:01;10.07;;;4.30;;
38117;SDS011;23928;47.562;7.508;2022-10-30T02:24:28;7.83;;;3.93;;
38117;SDS011;23928;47.562;7.508;2022-10-30T02:26:54;8.13;;;4.13;;
38117;SDS011;23928;47.562;7.508;2022-10-30T02:29:19;7.83;;;4.13;;
38117;SDS011;23928;47.562;7.508;2022-10-30T02:31:45;7.00;;;3.90;;
38117;SDS011;23928;47.562;7.508;2022-10-30T02:34:11;6.63;;;3.93;;
38117;SDS011;23928;47.562;7.508;2022-10-30T02:36:37;8.43;;;3.80;;
38117;SDS011;23928;47.562;7.508;2022-10-30T02:39:03;6.40;;;3.93;;
38117;SDS011;23928;47.562;7.508;2022-10-30T02:41:28;13.40;;;4.23;;
38117;SDS011;23928;47.562;7.508;2022-10-30T02:43:54;6.87;;;4.23;;
38117;SDS011;23928;47.562;7.508;2022-10-30T02:46:19;9.17;;;4.33;;
38117;SDS011;23928;47.562;7.508;2022-10-30T02:48:45;12.83;;;5.43;;
38117;SDS011;23928;47.562;7.508;2022-10-30T02:51:11;8.10;;;4.30;;
38117;SDS011;23928;47.562;7.508;2022-10-30T02:53:37;7.80;;;3.90;;
38117;SDS011;23928;47.562;7.508;2022-10-30T02:56:03;8.10;;;4.13;;
38117;SDS011;23928;47.562;7.508;2022-10-30T02:58:30;10.13;;;4.60;;
38117;SDS011;23928;47.562;7.508;2022-10-30T03:00:56;7.87;;;4.60;;
38117;SDS011;23928;47.562;7.508;2022-10-30T03:03:21;12.00;;;5.00;;
38117;SDS011;23928;47.562;7.508;2022-10-30T03:05:47;8.57;;;4.23;;
38117;SDS011;23928;47.562;7.508;2022-10-30T03:08:12;10.70;;;4.20;;
38117;SDS011;23928;47.562;7.508;2022-10-30T03:10:38;9.57;;;4.57;;
38117;SDS011;23928;47.562;7.508;2022-10-30T03:13:04;11.73;;;4.00;;
38117;SDS011;23928;47.562;7.508;2022-10-30T03:15:29;7.27;;;3.87;;
38117;SDS011;23928;47.562;7.508;2022-10-30T03:17:55;8.77;;;4.27;;
38117;SDS011;23928;47.562;7.508;2022-10-30T03:20:20;13.37;;;4.30;;
38117;SDS011;23928;47.562;7.508;2022-10-30T03:22:46;5.83;;;3.60;;
38117;SDS011;23928;47.562;7.508;2022-10-30T03:25:11;8.57;;;3.70;;
38117;SDS011;23928;47.562;7.508;2022-10-30T03:27:37;8.07;;;3.60;;
38117;SDS011;23928;47.562;7.508;2022-10-30T03:30:03;6.80;;;3.53;;
38117;SDS011;23928;47.562;7.508;2022-10-30T03:32:28;9.23;;;4.33;;
38117;SDS011;23928;47.562;7.508;2022-10-30T03:34:54;11.03;;;4.00;;
38117;SDS011;23928;47.562;7.508;2022-10-30T03:37:20;12.27;;;4.00;;
38117;SDS011;23928;47.562;7.508;2022-10-30T03:39:45;9.30;;;4.13;;
38117;SDS011;23928;47.562;7.508;2022-10-30T03:42:11;9.13;;;3.43;;
38117;SDS011;23928;47.562;7.508;2022-10-30T03:44:36;4.73;;;3.60;;
38117;SDS011;23928;47.562;7.508;2022-10-30T03:47:02;7.17;;;3.67;;
38117;SDS011;23928;47.562;7.508;2022-10-30T03:49:28;6.07;;;3.77;;
38117;SDS011;23928;47.562;7.508;2022-10-30T03:51:53;11.17;;;3.90;;
38117;SDS011;23928;47.562;7.508;2022-10-30T03:54:19;8.77;;;4.10;;
38117;SDS011;23928;47.562;7.508;2022-10-30T03:56:44;14.00;;;4.23;;
38117;SDS011;23928;47.562;7.508;2022-10-30T03:59:10;7.47;;;3.27;;
38117;SDS011;23928;47.562;7.508;2022-10-30T04:01:36;8.30;;;3.90;;
38117;SDS011;23928;47.562;7.508;2022-10-30T04:04:02;7.80;;;3.90;;
38117;SDS011;23928;47.562;7.508;2022-10-30T04:06:28;10.10;;;3.97;;
38117;SDS011;23928;47.562;7.508;2022-10-30T04:08:53;4.63;;;3.30;;
38117;SDS011;23928;47.562;7.508;2022-10-30T04:11:19;8.93;;;4.03;;
38117;SDS011;23928;47.562;7.508;2022-10-30T04:13:45;11.63;;;4.30;;
38117;SDS011;23928;47.562;7.508;2022-10-30T04:16:10;10.10;;;4.13;;
38117;SDS011;23928;47.562;7.508;2022-10-30T04:18:36;7.30;;;3.70;;
38117;SDS011;23928;47.562;7.508;2022-10-30T04:21:02;7.93;;;3.43;;
38117;SDS011;23928;47.562;7.508;2022-10-30T04:23:28;13.10;;;4.53;;
38117;SDS011;23928;47.562;7.508;2022-10-30T04:25:53;8.43;;;3.57;;
38117;SDS011;23928;47.562;7.508;2022-10-30T04:28:19;11.27;;;4.27;;
38117;SDS011;23928;47.562;7.508;2022-10-30T04:30:45;7.20;;;3.77;;
38117;SDS011;23928;47.562;7.508;2022-10-30T04:33:11;9.93;;;4.57;;
38117;SDS011;23928;47.562;7.508;2022-10-30T04:35:38;9.47;;;3.73;;
38117;SDS011;23928;47.562;7.508;2022-10-30T04:38:06;9.70;;;3.60;;
38117;SDS011;23928;47.562;7.508;2022-10-30T04:40:37;8.77;;;4.40;;
38117;SDS011;23928;47.562;7.508;2022-10-30T04:43:04;8.33;;;3.40;;
38117;SDS011;23928;47.562;7.508;2022-10-30T04:45:30;9.40;;;3.23;;
38117;SDS011;23928;47.562;7.508;2022-10-30T04:48:00;7.87;;;3.27;;
38117;SDS011;23928;47.562;7.508;2022-10-30T04:50:27;8.73;;;3.90;;
38117;SDS011;23928;47.562;7.508;2022-10-30T04:53:03;10.87;;;4.37;;
38117;SDS011;23928;47.562;7.508;2022-10-30T04:55:35;6.13;;;3.40;;
38117;SDS011;23928;47.562;7.508;2022-10-30T04:58:01;6.43;;;3.40;;
38117;SDS011;23928;47.562;7.508;2022-10-30T05:00:29;6.57;;;3.47;;
38117;SDS011;23928;47.562;7.508;2022-10-30T05:02:57;7.93;;;4.10;;
38117;SDS011;23928;47.562;7.508;2022-10-30T05:05:24;8.90;;;3.37;;
38117;SDS011;23928;47.562;7.508;2022-10-30T05:07:49;5.60;;;3.17;;
38117;SDS011;23928;47.562;7.508;2022-10-30T05:10:15;9.70;;;4.10;;
38117;SDS011;23928;47.562;7.508;2022-10-30T05:12:42;6.63;;;3.37;;
38117;SDS011;23928;47.562;7.508;2022-10-30T05:15:09;8.30;;;3.63;;
38117;SDS011;23928;47.562;7.508;2022-10-30T05:17:36;8.17;;;3.10;;
38117;SDS011;23928;47.562;7.508;2022-10-30T05:20:01;8.07;;;4.20;;
38117;SDS011;23928;47.562;7.508;2022-10-30T05:22:27;11.77;;;3.90;;
38117;SDS011;23928;47.562;7.508;2022-10-30T05:24:53;6.33;;;3.17;;
38117;SDS011;23928;47.562;7.508;2022-10-30T05:27:18;5.73;;;3.17;;
38117;SDS011;23928;47.562;7.508;2022-10-30T05:29:44;7.27;;;2.90;;
38117;SDS011;23928;47.562;7.508;2022-10-30T05:32:10;6.23;;;3.10;;
38117;SDS011;23928;47.562;7.508;2022-10-30T05:34:35;8.13;;;4.13;;
38117;SDS011;23928;47.562;7.508;2022-10-30T05:37:01;6.57;;;3.70;;
38117;SDS011;23928;47.562;7.508;2022-10-30T05:39:26;10.83;;;4.17;;
38117;SDS011;23928;47.562;7.508;2022-10-30T05:41:52;9.77;;;3.87;;
38117;SDS011;23928;47.562;7.508;2022-10-30T05:44:18;7.10;;;3.30;;
38117;SDS011;23928;47.562;7.508;2022-10-30T05:46:43;9.20;;;3.80;;
38117;SDS011;23928;47.562;7.508;2022-10-30T05:49:09;5.53;;;3.63;;
38117;SDS011;23928;47.562;7.508;2022-10-30T05:51:34;8.43;;;3.87;;
38117;SDS011;23928;47.562;7.508;2022-10-30T05:54:00;8.13;;;3.90;;
38117;SDS011;23928;47.562;7.508;2022-10-30T05:56:26;9.33;;;4.03;;
38117;SDS011;23928;47.562;7.508;2022-10-30T05:58:51;6.90;;;4.03;;
38117;SDS011;23928;47.562;7.508;2022-10-30T06:01:17;9.53;;;4.20;;
38117;SDS011;23928;47.562;7.508;2022-10-30T06:03:42;10.13;;;4.33;;
38117;SDS011;23928;47.562;7.508;2022-10-30T06:06:08;10.37;;;3.90;;
38117;SDS011;23928;47.562;7.508;2022-10-30T06:08:34;6.20;;;3.33;;
38117;SDS011;23928;47.562;7.508;2022-10-30T06:11:00;6.67;;;3.23;;
38117;SDS011;23928;47.562;7.508;2022-10-30T06:13:25;7.33;;;3.67;;
38117;SDS011;23928;47.562;7.508;2022-10-30T06:15:53;6.80;;;3.47;;
38117;SDS011;23928;47.562;7.508;2022-10-30T06:18:19;7.97;;;3.60;;
38117;SDS011;23928;47.562;7.508;2022-10-30T06:20:45;8.83;;;3.87;;
38117;SDS011;23928;47.562;7.508;2022-10-30T06:23:10;8.73;;;3.90;;
38117;SDS011;23928;47.562;7.508;2022-10-30T06:25:36;7.60;;;3.67;;
38117;SDS011;23928;47.562;7.508;2022-10-30T06:28:02;8.07;;;3.70;;
38117;SDS011;23928;47.562;7.508;2022-10-30T06:30:27;10.27;;;3.53;;
38117;SDS011;23928;47.562;7.508;2022-10-30T06:32:57;5.93;;;4.10;;
38117;SDS011;23928;47.562;7.508;2022-10-30T06:35:23;5.63;;;3.50;;
38117;SDS011;23928;47.562;7.508;2022-10-30T06:37:49;7.07;;;3.43;;
38117;SDS011;23928;47.562;7.508;2022-10-30T06:40:15;7.90;;;3.80;;
38117;SDS011;23928;47.562;7.508;2022-10-30T06:42:45;9.07;;;3.63;;
38117;SDS011;23928;47.562;7.508;2022-10-30T06:45:12;7.10;;;3.93;;
38117;SDS011;23928;47.562;7.508;2022-10-30T06:47:39;4.73;;;3.63;;
38117;SDS011;23928;47.562;7.508;2022-10-30T06:50:05;8.83;;;4.10;;
38117;SDS011;23928;47.562;7.508;2022-10-30T06:52:32;7.93;;;3.63;;
38117;SDS011;23928;47.562;7.508;2022-10-30T06:54:58;6.57;;;3.80;;
38117;SDS011;23928;47.562;7.508;2022-10-30T06:57:23;6.80;;;3.97;;
38117;SDS011;23928;47.562;7.508;2022-10-30T06:59:49;7.27;;;3.70;;
38117;SDS011;23928;47.562;7.508;2022-10-30T07:02:14;10.20;;;3.77;;
38117;SDS011;23928;47.562;7.508;2022-10-30T07:04:40;10.57;;;4.60;;
38117;SDS011;23928;47.562;7.508;2022-10-30T07:07:06;7.03;;;4.00;;
38117;SDS011;23928;47.562;7.508;2022-10-30T07:09:31;7.20;;;4.00;;
38117;SDS011;23928;47.562;7.508;2022-10-30T07:11:57;7.77;;;3.73;;
38117;SDS011;23928;47.562;7.508;2022-10-30T07:14:22;12.07;;;3.97;;
38117;SDS011;23928;47.562;7.508;2022-10-30T07:16:48;8.47;;;4.23;;
38117;SDS011;23928;47.562;7.508;2022-10-30T07:19:14;8.33;;;4.27;;
38117;SDS011;23928;47.562;7.508;2022-10-30T07:21:39;13.77;;;4.33;;
38117;SDS011;23928;47.562;7.508;2022-10-30T07:24:05;10.70;;;4.80;;
38117;SDS011;23928;47.562;7.508;2022-10-30T07:26:31;8.43;;;4.43;;
38117;SDS011;23928;47.562;7.508;2022-10-30T07:28:57;10.37;;;3.77;;
38117;SDS011;23928;47.562;7.508;2022-10-30T07:31:23;7.83;;;4.20;;
38117;SDS011;23928;47.562;7.508;2022-10-30T07:33:48;12.20;;;4.60;;
38117;SDS011;23928;47.562;7.508;2022-10-30T07:36:14;7.13;;;3.80;;
38117;SDS011;23928;47.562;7.508;2022-10-30T07:38:40;6.70;;;3.73;;
38117;SDS011;23928;47.562;7.508;2022-10-30T07:41:05;9.90;;;3.77;;
38117;SDS011;23928;47.562;7.508;2022-10-30T07:43:31;14.17;;;4.33;;
38117;SDS011;23928;47.562;7.508;2022-10-30T07:45:56;9.47;;;4.23;;
38117;SDS011;23928;47.562;7.508;2022-10-30T07:48:22;9.83;;;4.27;;
38117;SDS011;23928;47.562;7.508;2022-10-30T07:50:47;8.03;;;4.10;;
38117;SDS011;23928;47.562;7.508;2022-10-30T07:53:13;10.17;;;4.40;;
38117;SDS011;23928;47.562;7.508;2022-10-30T07:55:40;8.03;;;4.30;;
38117;SDS011;23928;47.562;7.508;2022-10-30T07:58:06;13.13;;;4.53;;
38117;SDS011;23928;47.562;7.508;2022-10-30T08:00:32;7.97;;;4.20;;
38117;SDS011;23928;47.562;7.508;2022-10-30T08:02:57;10.27;;;3.93;;
38117;SDS011;23928;47.562;7.508;2022-10-30T08:05:23;9.53;;;3.77;;
38117;SDS011;23928;47.562;7.508;2022-10-30T08:07:49;7.87;;;4.23;;
38117;SDS011;23928;47.562;7.508;2022-10-30T08:10:15;12.07;;;4.47;;
38117;SDS011;23928;47.562;7.508;2022-10-30T08:12:41;8.37;;;4.03;;
38117;SDS011;23928;47.562;7.508;2022-10-30T08:15:08;9.23;;;3.70;;
38117;SDS011;23928;47.562;7.508;2022-10-30T08:17:44;9.73;;;4.30;;
38117;SDS011;23928;47.562;7.508;2022-10-30T08:20:12;10.47;;;3.63;;
38117;SDS011;23928;47.562;7.508;2022-10-30T08:22:57;9.23;;;3.70;;
38117;SDS011;23928;47.562;7.508;2022-10-30T08:25:24;8.63;;;3.70;;
38117;SDS011;23928;47.562;7.508;2022-10-30T08:30:20;10.23;;;3.77;;
38117;SDS011;23928;47.562;7.508;2022-10-30T08:32:46;7.93;;;3.67;;
38117;SDS011;23928;47.562;7.508;2022-10-30T08:35:12;8.97;;;3.80;;
38117;SDS011;23928;47.562;7.508;2022-10-30T08:37:37;12.03;;;4.00;;
38117;SDS011;23928;47.562;7.508;2022-10-30T08:40:03;9.17;;;4.57;;
38117;SDS011;23928;47.562;7.508;2022-10-30T08:42:29;7.93;;;4.10;;
38117;SDS011;23928;47.562;7.508;2022-10-30T08:44:55;8.43;;;3.80;;
38117;SDS011;23928;47.562;7.508;2022-10-30T08:47:20;11.93;;;4.00;;
38117;SDS011;23928;47.562;7.508;2022-10-30T08:49:46;10.97;;;3.80;;
38117;SDS011;23928;47.562;7.508;2022-10-30T08:52:12;8.73;;;3.70;;
38117;SDS011;23928;47.562;7.508;2022-10-30T08:54:37;7.83;;;3.63;;
38117;SDS011;23928;47.562;7.508;2022-10-30T08:57:03;10.00;;;4.40;;
38117;SDS011;23928;47.562;7.508;2022-10-30T08:59:28;9.70;;;3.43;;
38117;SDS011;23928;47.562;7.508;2022-10-30T09:01:54;8.67;;;3.83;;
38117;SDS011;23928;47.562;7.508;2022-10-30T09:04:19;10.30;;;3.70;;
38117;SDS011;23928;47.562;7.508;2022-10-30T09:06:45;11.13;;;3.80;;
38117;SDS011;23928;47.562;7.508;2022-10-30T09:09:10;10.80;;;4.37;;
38117;SDS011;23928;47.562;7.508;2022-10-30T09:11:38;10.00;;;3.80;;
38117;SDS011;23928;47.562;7.508;2022-10-30T09:14:03;11.23;;;4.10;;
38117;SDS011;23928;47.562;7.508;2022-10-30T09:16:29;8.87;;;4.13;;
38117;SDS011;23928;47.562;7.508;2022-10-30T09:18:54;7.77;;;3.97;;
38117;SDS011;23928;47.562;7.508;2022-10-30T09:21:20;7.90;;;3.50;;
38117;SDS011;23928;47.562;7.508;2022-10-30T09:23:45;9.23;;;4.13;;
38117;SDS011;23928;47.562;7.508;2022-10-30T09:26:11;10.03;;;4.10;;
38117;SDS011;23928;47.562;7.508;2022-10-30T09:28:37;9.93;;;3.93;;
38117;SDS011;23928;47.562;7.508;2022-10-30T09:31:02;8.17;;;3.60;;
38117;SDS011;23928;47.562;7.508;2022-10-30T09:33:28;9.67;;;4.00;;
38117;SDS011;23928;47.562;7.508;2022-10-30T09:35:54;8.97;;;4.03;;
38117;SDS011;23928;47.562;7.508;2022-10-30T09:38:19;11.03;;;3.80;;
38117;SDS011;23928;47.562;7.508;2022-10-30T09:45:44;9.50;;;3.57;;
38117;SDS011;23928;47.562;7.508;2022-10-30T09:56:28;8.50;;;4.00;;
38117;SDS011;23928;47.562;7.508;2022-10-30T09:59:11;10.70;;;4.53;;
38117;SDS011;23928;47.562;7.508;2022-10-30T10:02:20;10.93;;;4.40;;
38117;SDS011;23928;47.562;7.508;2022-10-30T10:04:57;12.63;;;4.47;;
38117;SDS011;23928;47.562;7.508;2022-10-30T10:07:31;9.33;;;4.30;;
38117;SDS011;23928;47.562;7.508;2022-10-30T10:10:05;11.30;;;5.07;;
38117;SDS011;23928;47.562;7.508;2022-10-30T10:12:38;9.17;;;4.80;;
38117;SDS011;23928;47.562;7.508;2022-10-30T10:15:17;10.53;;;4.30;;
38117;SDS011;23928;47.562;7.508;2022-10-30T10:17:55;10.67;;;5.03;;
38117;SDS011;23928;47.562;7.508;2022-10-30T10:20:32;8.73;;;4.93;;
38117;SDS011;23928;47.562;7.508;2022-10-30T10:23:10;6.70;;;4.50;;
38117;SDS011;23928;47.562;7.508;2022-10-30T10:25:59;8.87;;;4.50;;
38117;SDS011;23928;47.562;7.508;2022-10-30T10:28:48;8.57;;;4.70;;
38117;SDS011;23928;47.562;7.508;2022-10-30T10:31:34;15.13;;;6.17;;
38117;SDS011;23928;47.562;7.508;2022-10-30T10:34:20;10.60;;;4.70;;
38117;SDS011;23928;47.562;7.508;2022-10-30T10:44:59;9.83;;;4.00;;
38117;SDS011;23928;47.562;7.508;2022-10-30T10:50:28;11.30;;;4.37;;
38117;SDS011;23928;47.562;7.508;2022-10-30T10:53:00;10.90;;;4.50;;
38117;SDS011;23928;47.562;7.508;2022-10-30T10:55:35;12.50;;;4.30;;
38117;SDS011;23928;47.562;7.508;2022-10-30T10:58:08;11.40;;;4.37;;
38117;SDS011;23928;47.562;7.508;2022-10-30T11:00:42;9.80;;;4.23;;
38117;SDS011;23928;47.562;7.508;2022-10-30T11:03:12;11.90;;;4.10;;
38117;SDS011;23928;47.562;7.508;2022-10-30T11:08:51;9.70;;;4.77;;
38117;SDS011;23928;47.562;7.508;2022-10-30T11:11:25;12.47;;;4.27;;
38117;SDS011;23928;47.562;7.508;2022-10-30T11:13:51;8.67;;;4.47;;
38117;SDS011;23928;47.562;7.508;2022-10-30T11:16:28;7.43;;;4.27;;
38117;SDS011;23928;47.562;7.508;2022-10-30T11:19:03;11.17;;;4.43;;
38117;SDS011;23928;47.562;7.508;2022-10-30T11:21:34;7.73;;;4.17;;
38117;SDS011;23928;47.562;7.508;2022-10-30T11:24:24;11.77;;;4.67;;
38117;SDS011;23928;47.562;7.508;2022-10-30T11:26:50;9.63;;;4.97;;
38117;SDS011;23928;47.562;7.508;2022-10-30T11:29:17;8.20;;;3.80;;
38117;SDS011;23928;47.562;7.508;2022-10-30T11:31:57;9.03;;;4.50;;
38117;SDS011;23928;47.562;7.508;2022-10-30T11:34:30;8.10;;;4.33;;
38117;SDS011;23928;47.562;7.508;2022-10-30T11:36:58;8.23;;;3.80;;
38117;SDS011;23928;47.562;7.508;2022-10-30T11:39:27;10.87;;;4.13;;
38117;SDS011;23928;47.562;7.508;2022-10-30T11:44:31;8.80;;;4.57;;
38117;SDS011;23928;47.562;7.508;2022-10-30T11:47:00;7.57;;;4.07;;
38117;SDS011;23928;47.562;7.508;2022-10-30T11:49:45;9.50;;;4.23;;
38117;SDS011;23928;47.562;7.508;2022-10-30T11:52:16;10.03;;;4.20;;
38117;SDS011;23928;47.562;7.508;2022-10-30T11:54:49;9.03;;;4.27;;
38117;SDS011;23928;47.562;7.508;2022-10-30T11:57:37;8.97;;;3.87;;
38117;SDS011;23928;47.562;7.508;2022-10-30T12:00:13;7.27;;;3.63;;
38117;SDS011;23928;47.562;7.508;2022-10-30T12:02:40;11.07;;;3.70;;
38117;SDS011;23928;47.562;7.508;2022-10-30T12:07:51;12.10;;;4.20;;
38117;SDS011;23928;47.562;7.508;2022-10-30T12:10:24;9.03;;;3.70;;
38117;SDS011;23928;47.562;7.508;2022-10-30T12:12:52;9.47;;;3.73;;
38117;SDS011;23928;47.562;7.508;2022-10-30T12:15:19;9.73;;;4.20;;
38117;SDS011;23928;47.562;7.508;2022-10-30T12:17:51;10.07;;;4.40;;
38117;SDS011;23928;47.562;7.508;2022-10-30T12:20:19;10.23;;;3.70;;
38117;SDS011;23928;47.562;7.508;2022-10-30T12:22:45;10.90;;;4.50;;
38117;SDS011;23928;47.562;7.508;2022-10-30T12:25:21;11.43;;;3.87;;
38117;SDS011;23928;47.562;7.508;2022-10-30T12:27:56;12.50;;;4.50;;
38117;SDS011;23928;47.562;7.508;2022-10-30T12:30:39;10.60;;;4.03;;
38117;SDS011;23928;47.562;7.508;2022-10-30T12:33:21;8.03;;;3.60;;
38117;SDS011;23928;47.562;7.508;2022-10-30T12:36:11;7.20;;;4.03;;
38117;SDS011;23928;47.562;7.508;2022-10-30T12:38:50;12.07;;;4.40;;
38117;SDS011;23928;47.562;7.508;2022-10-30T12:44:03;7.40;;;3.50;;
38117;SDS011;23928;47.562;7.508;2022-10-30T12:46:41;13.37;;;4.40;;
38117;SDS011;23928;47.562;7.508;2022-10-30T12:52:04;7.43;;;3.73;;
38117;SDS011;23928;47.562;7.508;2022-10-30T12:54:46;10.87;;;3.97;;
38117;SDS011;23928;47.562;7.508;2022-10-30T12:57:17;9.53;;;4.20;;
38117;SDS011;23928;47.562;7.508;2022-10-30T12:59:54;8.03;;;4.10;;
38117;SDS011;23928;47.562;7.508;2022-10-30T13:05:04;9.50;;;3.83;;
38117;SDS011;23928;47.562;7.508;2022-10-30T13:07:46;11.97;;;4.27;;
38117;SDS011;23928;47.562;7.508;2022-10-30T13:10:21;7.70;;;4.07;;
38117;SDS011;23928;47.562;7.508;2022-10-30T13:12:54;7.63;;;3.67;;
38117;SDS011;23928;47.562;7.508;2022-10-30T13:17:55;8.93;;;4.40;;
38117;SDS011;23928;47.562;7.508;2022-10-30T13:20:22;7.10;;;3.90;;
38117;SDS011;23928;47.562;7.508;2022-10-30T13:22:54;8.67;;;3.93;;
38117;SDS011;23928;47.562;7.508;2022-10-30T13:25:39;8.87;;;4.63;;
38117;SDS011;23928;47.562;7.508;2022-10-30T13:28:27;9.40;;;4.20;;
38117;SDS011;23928;47.562;7.508;2022-10-30T13:31:13;5.67;;;4.00;;
38117;SDS011;23928;47.562;7.508;2022-10-30T13:36:46;12.77;;;5.10;;
38117;SDS011;23928;47.562;7.508;2022-10-30T13:39:34;7.40;;;3.70;;
38117;SDS011;23928;47.562;7.508;2022-10-30T13:42:24;10.20;;;4.57;;
38117;SDS011;23928;47.562;7.508;2022-10-30T13:48:07;12.53;;;4.30;;
38117;SDS011;23928;47.562;7.508;2022-10-30T13:53:42;9.23;;;4.13;;
38117;SDS011;23928;47.562;7.508;2022-10-30T13:56:13;9.37;;;4.20;;
38117;SDS011;23928;47.562;7.508;2022-10-30T13:58:45;10.37;;;4.67;;
38117;SDS011;23928;47.562;7.508;2022-10-30T14:01:20;7.50;;;4.20;;
38117;SDS011;23928;47.562;7.508;2022-10-30T14:28:43;10.10;;;4.33;;
38117;SDS011;23928;47.562;7.508;2022-10-30T14:31:13;8.10;;;4.33;;
38117;SDS011;23928;47.562;7.508;2022-10-30T14:36:16;9.23;;;4.73;;
38117;SDS011;23928;47.562;7.508;2022-10-30T14:39:23;12.47;;;4.50;;
38117;SDS011;23928;47.562;7.508;2022-10-30T14:48:15;12.80;;;5.17;;
38117;SDS011;23928;47.562;7.508;2022-10-30T14:52:58;10.77;;;4.47;;
38117;SDS011;23928;47.562;7.508;2022-10-30T14:55:49;11.97;;;4.47;;
38117;SDS011;23928;47.562;7.508;2022-10-30T14:58:23;8.27;;;4.47;;
38117;SDS011;23928;47.562;7.508;2022-10-30T15:00:53;11.10;;;4.43;;
38117;SDS011;23928;47.562;7.508;2022-10-30T15:06:42;8.33;;;4.27;;
38117;SDS011;23928;47.562;7.508;2022-10-30T15:15:02;8.40;;;4.13;;
38117;SDS011;23928;47.562;7.508;2022-10-30T15:17:31;11.07;;;5.40;;
38117;SDS011;23928;47.562;7.508;2022-10-30T15:20:03;8.03;;;4.27;;
38117;SDS011;23928;47.562;7.508;2022-10-30T15:22:51;9.97;;;4.83;;
38117;SDS011;23928;47.562;7.508;2022-10-30T15:25:21;7.50;;;4.40;;
38117;SDS011;23928;47.562;7.508;2022-10-30T15:27:51;10.97;;;4.37;;
38117;SDS011;23928;47.562;7.508;2022-10-30T15:30:22;8.07;;;4.37;;
38117;SDS011;23928;47.562;7.508;2022-10-30T15:32:50;7.43;;;4.30;;
38117;SDS011;23928;47.562;7.508;2022-10-30T15:35:22;9.80;;;4.73;;
38117;SDS011;23928;47.562;7.508;2022-10-30T15:38:10;8.50;;;5.03;;
38117;SDS011;23928;47.562;7.508;2022-10-30T15:40:35;11.10;;;5.10;;
38117;SDS011;23928;47.562;7.508;2022-10-30T15:43:03;11.83;;;5.03;;
38117;SDS011;23928;47.562;7.508;2022-10-30T15:48:03;11.07;;;5.23;;
38117;SDS011;23928;47.562;7.508;2022-10-30T15:50:31;6.37;;;4.53;;
38117;SDS011;23928;47.562;7.508;2022-10-30T15:52:58;10.07;;;4.43;;
38117;SDS011;23928;47.562;7.508;2022-10-30T15:55:28;8.87;;;4.07;;
38117;SDS011;23928;47.562;7.508;2022-10-30T15:57:56;9.50;;;4.27;;
38117;SDS011;23928;47.562;7.508;2022-10-30T16:00:26;9.00;;;4.80;;
38117;SDS011;23928;47.562;7.508;2022-10-30T16:03:15;7.23;;;4.50;;
38117;SDS011;23928;47.562;7.508;2022-10-30T16:05:41;7.50;;;4.70;;
38117;SDS011;23928;47.562;7.508;2022-10-30T16:08:14;9.43;;;4.37;;
38117;SDS011;23928;47.562;7.508;2022-10-30T16:10:44;7.93;;;3.83;;
38117;SDS011;23928;47.562;7.508;2022-10-30T16:13:18;10.27;;;5.13;;
38117;SDS011;23928;47.562;7.508;2022-10-30T16:15:47;9.60;;;4.50;;
38117;SDS011;23928;47.562;7.508;2022-10-30T16:18:16;8.00;;;4.03;;
38117;SDS011;23928;47.562;7.508;2022-10-30T16:20:49;9.57;;;4.00;;
38117;SDS011;23928;47.562;7.508;2022-10-30T16:23:22;10.73;;;4.63;;
38117;SDS011;23928;47.562;7.508;2022-10-30T16:25:53;8.47;;;4.20;;
38117;SDS011;23928;47.562;7.508;2022-10-30T16:30:51;9.63;;;4.67;;
38117;SDS011;23928;47.562;7.508;2022-10-30T16:33:17;8.33;;;4.40;;
38117;SDS011;23928;47.562;7.508;2022-10-30T16:35:49;9.87;;;5.70;;
38117;SDS011;23928;47.562;7.508;2022-10-30T16:38:16;9.40;;;4.90;;
38117;SDS011;23928;47.562;7.508;2022-10-30T16:40:43;6.63;;;4.40;;
38117;SDS011;23928;47.562;7.508;2022-10-30T16:48:56;7.67;;;5.03;;
38117;SDS011;23928;47.562;7.508;2022-10-30T16:51:24;8.63;;;5.10;;
38117;SDS011;23928;47.562;7.508;2022-10-30T16:53:50;10.90;;;5.60;;
38117;SDS011;23928;47.562;7.508;2022-10-30T16:56:27;8.33;;;5.00;;
38117;SDS011;23928;47.562;7.508;2022-10-30T16:59:04;8.67;;;5.43;;
38117;SDS011;23928;47.562;7.508;2022-10-30T17:01:32;11.60;;;5.63;;
38117;SDS011;23928;47.562;7.508;2022-10-30T17:03:59;9.30;;;4.87;;
38117;SDS011;23928;47.562;7.508;2022-10-30T17:08:51;9.73;;;5.47;;
38117;SDS011;23928;47.562;7.508;2022-10-30T17:11:18;11.33;;;6.33;;
38117;SDS011;23928;47.562;7.508;2022-10-30T17:14:16;7.23;;;5.03;;